Time;durP1;ratioP1;P1;durP2;ratioP2;P2;SDS_P1;SDS_P2;PMS_P1;PMS_P2;Temp;Humidity;BMP_temperature;BMP_pressure;BME280_temperature;BME280_humidity;BME280_pressure;Samples;Min_cycle;Max_cycle;Signal;HPM_P1;HPM_P2
2022/08/22 00:02:18;;;;;;;8.73;1.95;;;21.20;99.90;;;;;;5086968;28;20181;-93
2022/08/22 00:05:04;;;;;;;6.15;1.90;;;21.30;99.90;;;;;;5084458;28;20210;-89
2022/08/22 00:07:54;;;;;;;3.78;2.13;;;21.10;99.90;;;;;;5085837;28;20193;-90
2022/08/22 00:10:36;;;;;;;9.65;2.03;;;21.00;99.90;;;;;;5087366;28;20202;-93
2022/08/22 00:13:18;;;;;;;7.32;2.00;;;21.00;99.90;;;;;;5095220;28;20154;-96
2022/08/22 00:15:53;;;;;;;9.18;2.05;;;21.00;99.90;;;;;;5095673;28;20166;-94
2022/08/22 00:18:48;;;;;;;7.18;1.75;;;21.00;99.90;;;;;;5092299;28;20234;-95
2022/08/22 00:21:42;;;;;;;9.57;1.95;;;20.90;99.90;;;;;;5090193;28;20197;-96
2022/08/22 00:24:23;;;;;;;12.88;2.03;;;20.90;99.90;;;;;;5089747;28;20174;-93
2022/08/22 00:26:58;;;;;;;5.40;1.90;;;21.10;99.90;;;;;;5100643;28;20165;-86
2022/08/22 00:29:33;;;;;;;7.90;1.90;;;21.00;99.90;;;;;;5100063;28;20170;-91
2022/08/22 00:32:10;;;;;;;6.82;1.95;;;20.60;99.90;;;;;;5093913;28;20205;-94
2022/08/22 00:35:02;;;;;;;7.05;2.00;;;20.50;99.90;;;;;;5098508;28;20174;-88
2022/08/22 00:37:33;;;;;;;7.22;2.13;;;20.30;99.90;;;;;;5100373;28;20163;-90
2022/08/22 00:40:16;;;;;;;4.82;1.70;;;20.30;99.90;;;;;;5099205;28;20154;-93
2022/08/22 00:43:00;;;;;;;11.68;2.38;;;20.20;99.90;;;;;;5099335;28;20230;-90
2022/08/22 00:45:44;;;;;;;12.88;2.47;;;20.10;99.90;;;;;;5099366;28;20238;-89
2022/08/22 00:48:47;;;;;;;10.80;1.67;;;20.10;99.90;;;;;;5099411;28;20229;-92
2022/08/22 00:51:26;;;;;;;12.38;2.55;;;20.10;99.90;;;;;;5098051;28;20206;-93
2022/08/22 00:53:54;;;;;;;8.80;2.03;;;20.00;99.90;;;;;;5098452;28;20154;-88
2022/08/22 00:56:43;;;;;;;10.95;2.42;;;20.20;99.90;;;;;;5100828;28;20183;-86
2022/08/22 00:59:35;;;;;;;7.78;2.75;;;20.10;99.90;;;;;;5101614;28;20170;-89
2022/08/22 01:02:03;;;;;;;6.00;2.00;;;20.20;99.90;;;;;;5083687;28;20274;-92
2022/08/22 01:04:44;;;;;;;3.85;2.10;;;20.20;99.90;;;;;;5100378;28;20162;-83
2022/08/22 01:07:24;;;;;;;5.40;2.28;;;20.30;99.90;;;;;;5100948;28;20194;-87
2022/08/22 01:10:02;;;;;;;9.55;2.30;;;20.30;99.90;;;;;;5079530;28;20201;-81
2022/08/22 01:13:04;;;;;;;9.27;2.08;;;20.30;99.90;;;;;;5076715;28;20190;-83
2022/08/22 01:15:33;;;;;;;4.63;2.20;;;20.40;99.90;;;;;;5068200;28;20319;-81
2022/08/22 01:18:08;;;;;;;5.10;1.95;;;20.50;99.90;;;;;;5057586;28;20170;-83
2022/08/22 01:20:55;;;;;;;9.02;1.92;;;20.50;99.90;;;;;;5075475;28;20166;-83
2022/08/22 01:23:52;;;;;;;4.80;2.30;;;20.40;99.90;;;;;;5074046;28;20170;-82
2022/08/22 01:26:39;;;;;;;13.00;2.70;;;20.30;99.90;;;;;;5075732;28;20220;-82
2022/08/22 01:29:30;;;;;;;6.10;2.17;;;20.30;99.90;;;;;;5073691;28;20174;-82
2022/08/22 01:32:22;;;;;;;10.65;2.33;;;20.30;99.90;;;;;;5073508;28;20293;-82
2022/08/22 01:35:32;;;;;;;6.38;2.47;;;20.30;99.90;;;;;;5074205;28;20623;-83
2022/08/22 01:38:01;;;;;;;8.98;2.17;;;20.30;99.90;;;;;;5069090;28;20247;-82
2022/08/22 01:40:45;;;;;;;4.55;2.30;;;20.10;99.90;;;;;;5073842;28;20174;-82
2022/08/22 01:43:10;;;;;;;5.32;2.20;;;20.30;99.90;;;;;;5073857;28;20190;-82
2022/08/22 01:46:13;;;;;;;5.75;1.55;;;20.50;99.90;;;;;;5074365;28;20163;-82
2022/08/22 01:48:47;;;;;;;8.85;2.50;;;20.50;99.90;;;;;;5072847;28;20261;-82
2022/08/22 01:51:23;;;;;;;13.55;2.97;;;20.40;99.90;;;;;;5074408;28;20312;-84
2022/08/22 01:54:00;;;;;;;5.53;2.28;;;20.30;99.90;;;;;;5073071;28;20170;-82
2022/08/22 01:56:32;;;;;;;11.77;2.92;;;20.40;99.90;;;;;;5078941;28;20204;-91
2022/08/22 01:59:10;;;;;;;7.18;2.15;;;20.70;99.90;;;;;;5092439;28;20226;-86
2022/08/22 02:02:10;;;;;;;9.63;2.42;;;20.80;99.90;;;;;;5075528;28;20194;-91
2022/08/22 02:05:24;;;;;;;7.80;2.05;;;20.80;99.90;;;;;;5093101;28;20178;-89
2022/08/22 02:08:32;;;;;;;9.35;2.47;;;20.70;99.90;;;;;;5095828;28;20232;-83
2022/08/22 02:11:09;;;;;;;7.38;2.35;;;20.40;99.90;;;;;;5077307;28;20269;-82
2022/08/22 02:13:57;;;;;;;11.18;2.47;;;20.40;99.90;;;;;;5071005;28;20174;-82
2022/08/22 02:16:43;;;;;;;7.35;2.28;;;20.40;99.90;;;;;;5073166;28;20224;-82
2022/08/22 02:19:18;;;;;;;7.38;2.30;;;20.50;99.90;;;;;;5074574;28;20261;-81
2022/08/22 02:22:00;;;;;;;7.90;2.45;;;20.50;99.90;;;;;;5074264;28;20558;-85
2022/08/22 02:24:55;;;;;;;7.93;2.63;;;20.50;99.90;;;;;;5072708;28;20686;-85
2022/08/22 02:27:50;;;;;;;12.32;2.88;;;20.40;99.90;;;;;;5070295;28;20183;-82
2022/08/22 02:30:29;;;;;;;8.70;2.38;;;20.60;99.90;;;;;;5073911;28;20309;-82
2022/08/22 02:33:01;;;;;;;7.70;2.92;;;20.70;99.90;;;;;;5074040;28;20743;-81
2022/08/22 02:35:42;;;;;;;9.10;3.00;;;20.80;99.90;;;;;;5073605;28;20167;-83
2022/08/22 02:38:12;;;;;;;10.35;2.63;;;20.80;99.90;;;;;;5071924;28;20534;-82
2022/08/22 02:41:06;;;;;;;5.10;2.38;;;20.90;99.90;;;;;;5072207;28;20572;-82
2022/08/22 02:43:42;;;;;;;10.98;2.63;;;20.80;99.90;;;;;;5072231;28;20198;-82
2022/08/22 02:46:31;;;;;;;12.77;2.40;;;20.70;99.90;;;;;;5073279;28;20198;-82
2022/08/22 02:49:31;;;;;;;15.80;2.28;;;20.70;99.90;;;;;;5072036;28;20179;-82
2022/08/22 02:52:46;;;;;;;3.58;2.38;;;20.60;99.90;;;;;;5072087;28;20784;-82
2022/08/22 02:55:27;;;;;;;5.85;2.58;;;20.80;99.90;;;;;;5061599;28;20187;-83
2022/08/22 02:58:10;;;;;;;8.15;2.45;;;20.80;99.90;;;;;;5073278;28;20523;-82
2022/08/22 03:01:02;;;;;;;6.93;2.65;;;20.70;99.90;;;;;;5073335;28;20542;-83
2022/08/22 03:03:36;;;;;;;6.28;2.20;;;20.90;99.90;;;;;;5072364;28;20181;-84
2022/08/22 03:06:07;;;;;;;8.38;2.30;;;21.00;99.90;;;;;;5055974;28;20174;-82
2022/08/22 03:08:59;;;;;;;5.15;2.20;;;20.80;99.90;;;;;;5071339;28;20564;-82
2022/08/22 03:11:34;;;;;;;5.95;2.42;;;20.90;99.90;;;;;;5073127;28;20206;-83
2022/08/22 03:14:42;;;;;;;9.82;2.22;;;20.90;99.90;;;;;;5071309;28;20173;-82
2022/08/22 03:17:27;;;;;;;12.05;2.40;;;20.90;99.90;;;;;;5071763;28;20191;-83
2022/08/22 03:20:11;;;;;;;3.20;2.10;;;20.90;99.90;;;;;;5071718;28;20174;-82
2022/08/22 03:22:59;;;;;;;13.82;2.72;;;20.80;99.90;;;;;;5072596;28;20228;-83
2022/08/22 03:25:40;;;;;;;6.57;2.20;;;20.70;99.90;;;;;;5071977;28;20190;-82
2022/08/22 03:28:14;;;;;;;5.43;1.98;;;20.70;99.90;;;;;;5071798;28;20178;-82
2022/08/22 03:30:54;;;;;;;7.07;2.05;;;20.60;99.90;;;;;;5071209;28;20228;-83
2022/08/22 03:33:23;;;;;;;3.70;2.15;;;20.60;99.90;;;;;;5054804;28;20261;-82
2022/08/22 03:36:03;;;;;;;8.20;2.20;;;20.70;99.90;;;;;;5071166;28;20608;-81
2022/08/22 03:38:35;;;;;;;6.60;2.70;;;20.70;99.90;;;;;;5071247;28;20554;-82
2022/08/22 03:41:38;;;;;;;8.40;2.38;;;20.60;99.90;;;;;;5072539;28;20196;-81
2022/08/22 03:44:25;;;;;;;7.53;2.10;;;20.50;99.90;;;;;;5072520;28;20167;-82
2022/08/22 03:46:55;;;;;;;13.30;2.92;;;20.50;99.90;;;;;;5072537;28;20189;-81
2022/08/22 03:49:38;;;;;;;7.75;2.55;;;20.50;99.90;;;;;;5072413;28;20534;-82
2022/08/22 03:53:06;;;;;;;20.10;3.17;;;20.50;99.90;;;;;;5071157;28;20718;-81
2022/08/22 03:55:46;;;;;;;5.50;2.33;;;20.70;99.90;;;;;;5072343;28;20205;-83
2022/08/22 03:58:36;;;;;;;7.28;2.50;;;20.40;99.90;;;;;;5087381;28;20198;-86
2022/08/22 04:01:28;;;;;;;10.73;2.58;;;20.30;99.90;;;;;;5090647;28;20246;-83
2022/08/22 04:04:00;;;;;;;11.38;3.08;;;20.20;99.90;;;;;;5091293;28;20230;-88
2022/08/22 04:06:48;;;;;;;5.65;2.10;;;20.40;99.90;;;;;;5091822;28;20167;-86
2022/08/22 04:09:47;;;;;;;9.77;2.38;;;20.50;99.90;;;;;;5092235;28;20167;-89
2022/08/22 04:12:43;;;;;;;12.63;2.65;;;20.50;99.90;;;;;;5091407;28;20304;-86
2022/08/22 04:15:42;;;;;;;11.15;2.75;;;20.50;99.90;;;;;;5091943;28;20174;-85
2022/08/22 04:18:26;;;;;;;6.82;2.17;;;20.40;99.90;;;;;;5082546;28;20166;-82
2022/08/22 04:21:24;;;;;;;6.22;2.28;;;20.50;99.90;;;;;;5076351;28;20308;-82
2022/08/22 04:24:50;;;;;;;8.45;2.35;;;20.40;99.90;;;;;;5073038;28;20174;-82
2022/08/22 04:27:42;;;;;;;16.75;3.53;;;20.30;99.90;;;;;;5056188;28;20224;-82
2022/08/22 04:30:44;;;;;;;9.40;3.28;;;20.40;99.90;;;;;;5070106;28;20272;-81
2022/08/22 04:33:51;;;;;;;4.85;2.30;;;20.30;99.90;;;;;;5072177;28;20189;-82
2022/08/22 04:36:29;;;;;;;9.35;2.83;;;20.40;99.90;;;;;;5074394;28;20568;-82
2022/08/22 04:39:08;;;;;;;12.30;3.08;;;20.30;99.90;;;;;;5075900;28;20189;-82
2022/08/22 04:42:03;;;;;;;7.00;2.65;;;20.40;99.90;;;;;;5075667;28;20277;-85
2022/08/22 04:44:54;;;;;;;12.80;3.38;;;20.50;99.90;;;;;;5075551;28;20197;-81
2022/08/22 04:47:52;;;;;;;14.45;3.33;;;20.40;99.90;;;;;;5072980;28;20529;-82
2022/08/22 04:50:29;;;;;;;8.10;2.90;;;20.30;99.90;;;;;;5073375;28;20239;-82
2022/08/22 04:53:12;;;;;;;15.10;3.53;;;20.40;99.90;;;;;;5075126;28;20626;-82
2022/08/22 04:56:16;;;;;;;15.95;2.95;;;20.30;99.90;;;;;;5075229;28;20178;-82
2022/08/22 04:59:15;;;;;;;18.65;2.88;;;20.30;99.90;;;;;;5073380;28;20186;-82
2022/08/22 05:01:50;;;;;;;4.35;2.22;;;20.30;99.90;;;;;;5075314;28;20198;-84
2022/08/22 05:04:42;;;;;;;10.77;3.50;;;20.20;99.90;;;;;;5076400;28;20692;-83
2022/08/22 05:07:47;;;;;;;5.47;2.63;;;20.20;99.90;;;;;;5092809;28;20186;-95
2022/08/22 05:10:40;;;;;;;8.45;2.90;;;20.40;99.90;;;;;;5097278;28;20324;-89
2022/08/22 05:13:13;;;;;;;13.20;3.25;;;20.40;99.90;;;;;;5094950;28;20218;-94
2022/08/22 05:15:44;;;;;;;10.30;3.30;;;20.40;99.90;;;;;;5098033;28;20157;-94
2022/08/22 05:18:25;;;;;;;10.98;2.70;;;20.40;99.90;;;;;;5081252;28;20239;-93
2022/08/22 05:20:53;;;;;;;18.45;2.67;;;20.50;99.90;;;;;;5095927;28;20192;-92
2022/08/22 05:23:28;;;;;;;9.32;2.70;;;20.30;99.90;;;;;;5096978;28;20234;-93
2022/08/22 05:26:22;;;;;;;13.63;2.95;;;20.40;99.90;;;;;;5097264;28;20169;-89
2022/08/22 05:29:23;;;;;;;10.32;2.67;;;20.20;99.90;;;;;;5097278;28;20182;-95
2022/08/22 05:31:59;;;;;;;17.98;3.13;;;20.40;99.90;;;;;;5096491;28;20201;-92
2022/08/22 05:34:30;;;;;;;11.55;3.05;;;20.50;99.90;;;;;;5096089;28;20158;-89
2022/08/22 05:37:20;;;;;;;12.57;3.35;;;20.70;99.90;;;;;;5096440;28;20174;-88
2022/08/22 05:39:50;;;;;;;20.80;3.95;;;20.60;99.90;;;;;;5086189;28;20165;-96
2022/08/22 05:42:41;;;;;;;11.52;3.30;;;20.70;99.90;;;;;;5096738;28;20175;-87
2022/08/22 05:45:34;;;;;;;8.20;2.97;;;20.60;99.90;;;;;;5098651;28;20194;-83
2022/08/22 05:48:15;;;;;;;13.38;3.50;;;20.40;99.90;;;;;;5093627;28;20213;-88
2022/08/22 05:50:48;;;;;;;8.60;3.42;;;20.20;99.90;;;;;;5096856;28;20214;-90
2022/08/22 05:54:03;;;;;;;17.80;3.78;;;20.30;99.90;;;;;;5090301;28;20186;-83
2022/08/22 05:56:36;;;;;;;12.50;3.25;;;20.30;99.90;;;;;;5094117;28;20178;-95
2022/08/22 05:59:10;;;;;;;9.07;3.38;;;20.40;99.90;;;;;;5094519;28;20155;-93
2022/08/22 06:01:48;;;;;;;13.23;3.70;;;20.50;99.90;;;;;;5076031;28;20225;-90
2022/08/22 06:04:34;;;;;;;9.43;2.80;;;20.30;99.90;;;;;;5075138;28;20171;-92
2022/08/22 06:07:00;;;;;;;7.78;3.38;;;20.10;99.90;;;;;;5077990;28;20230;-92
2022/08/22 06:09:31;;;;;;;6.35;3.25;;;19.70;99.90;;;;;;5070360;28;20218;-94
2022/08/22 06:12:03;;;;;;;10.48;3.40;;;19.90;99.90;;;;;;5059409;28;20229;-93
2022/08/22 06:14:40;;;;;;;24.63;3.83;;;19.90;99.90;;;;;;5055812;28;20549;-89
2022/08/22 06:17:09;;;;;;;16.90;4.07;;;19.90;99.90;;;;;;5054600;28;20239;-88
2022/08/22 06:19:40;;;;;;;15.82;3.25;;;20.10;99.90;;;;;;5055654;28;20246;-92
2022/08/22 06:22:06;;;;;;;17.33;3.85;;;20.10;99.90;;;;;;5054427;28;20186;-92
2022/08/22 06:24:36;;;;;;;10.95;3.90;;;20.20;99.90;;;;;;5055350;28;20171;-92
2022/08/22 06:27:10;;;;;;;6.88;3.63;;;20.20;99.90;;;;;;5058986;28;20612;-91
2022/08/22 06:29:45;;;;;;;18.65;4.07;;;20.10;99.90;;;;;;5055323;28;20187;-92
2022/08/22 06:32:23;;;;;;;15.75;4.10;;;20.00;99.90;;;;;;5055900;28;20191;-95
2022/08/22 06:34:53;;;;;;;20.30;4.07;;;20.00;99.90;;;;;;5068312;28;20669;-81
2022/08/22 06:37:31;;;;;;;20.90;3.40;;;20.10;99.90;;;;;;5065209;28;20235;-82
2022/08/22 06:39:59;;;;;;;11.93;3.72;;;20.20;99.90;;;;;;5067850;28;20167;-82
2022/08/22 06:42:29;;;;;;;26.45;3.67;;;20.50;99.90;;;;;;5066583;28;20206;-80
2022/08/22 06:45:08;;;;;;;20.17;4.18;;;20.50;99.90;;;;;;5064514;28;20170;-84
2022/08/22 06:48:00;;;;;;;16.77;4.05;;;20.70;99.90;;;;;;5072647;28;20265;-81
2022/08/22 06:50:33;;;;;;;11.18;4.07;;;20.90;99.90;;;;;;5083465;28;20218;-81
2022/08/22 06:53:14;;;;;;;20.58;4.97;;;21.10;99.90;;;;;;5081257;28;20162;-80
2022/08/22 06:55:45;;;;;;;18.30;4.25;;;21.20;99.90;;;;;;5085407;28;20216;-81
2022/08/22 06:58:26;;;;;;;15.75;3.60;;;21.10;99.90;;;;;;5083966;28;20162;-81
2022/08/22 07:00:57;;;;;;;27.40;4.22;;;21.40;99.90;;;;;;5085244;28;20213;-85
2022/08/22 07:03:32;;;;;;;16.90;3.90;;;21.50;99.90;;;;;;5079095;28;20158;-86
2022/08/22 07:05:58;;;;;;;11.73;4.18;;;21.50;99.90;;;;;;5074594;28;20186;-88
2022/08/22 07:08:25;;;;;;;19.15;3.85;;;21.50;99.90;;;;;;5072393;28;20193;-88
2022/08/22 07:11:10;;;;;;;16.98;4.28;;;21.40;99.90;;;;;;5062019;28;20313;-89
2022/08/22 07:13:38;;;;;;;11.45;3.42;;;21.40;99.90;;;;;;5072602;28;20242;-80
2022/08/22 07:16:07;;;;;;;18.80;3.67;;;21.30;99.90;;;;;;5072247;28;20183;-87
2022/08/22 07:18:33;;;;;;;14.27;3.80;;;21.40;99.90;;;;;;5058029;28;20171;-88
2022/08/22 07:21:07;;;;;;;12.50;4.13;;;21.40;99.90;;;;;;5054052;28;20259;-88
2022/08/22 07:23:44;;;;;;;13.68;3.78;;;21.40;99.90;;;;;;5053980;28;20167;-90
2022/08/22 07:26:19;;;;;;;9.57;3.10;;;21.60;99.90;;;;;;5053045;28;20175;-90
2022/08/22 07:28:54;;;;;;;15.75;5.20;;;21.90;99.90;;;;;;5053030;28;20197;-93
2022/08/22 07:31:36;;;;;;;18.98;4.50;;;22.10;99.90;;;;;;5056017;28;20286;-92
2022/08/22 07:34:32;;;;;;;15.88;3.90;;;22.10;99.90;;;;;;5068205;28;20234;-85
2022/08/22 07:37:00;;;;;;;16.92;3.60;;;22.10;99.90;;;;;;5055208;28;20616;-87
2022/08/22 07:39:52;;;;;;;14.75;3.80;;;22.30;99.90;;;;;;5051640;28;20163;-86
2022/08/22 07:42:23;;;;;;;14.23;4.03;;;22.30;99.90;;;;;;5051200;28;20203;-85
2022/08/22 07:45:13;;;;;;;13.98;3.83;;;22.50;99.90;;;;;;5051725;28;20167;-86
2022/08/22 07:47:38;;;;;;;15.25;3.92;;;22.30;99.90;;;;;;5054681;28;20171;-86
2022/08/22 07:50:11;;;;;;;16.67;3.25;;;22.40;99.90;;;;;;5052837;28;20541;-87
2022/08/22 07:52:43;;;;;;;13.57;3.95;;;22.60;99.90;;;;;;5052225;28;20257;-88
2022/08/22 07:55:23;;;;;;;15.70;4.03;;;22.40;99.90;;;;;;5052089;28;20205;-86
2022/08/22 07:57:54;;;;;;;21.45;4.55;;;22.30;99.90;;;;;;5051563;28;20174;-86
2022/08/22 08:00:21;;;;;;;9.65;3.30;;;22.40;99.90;;;;;;5051925;28;20171;-87
2022/08/22 08:02:55;;;;;;;20.17;3.58;;;22.50;99.90;;;;;;5052122;28;20187;-86
2022/08/22 08:05:22;;;;;;;7.63;4.40;;;22.30;99.90;;;;;;5052760;28;20522;-86
2022/08/22 08:07:52;;;;;;;21.23;4.40;;;22.60;99.90;;;;;;5052845;28;20175;-86
2022/08/22 08:12:47;;;;;;;18.30;3.78;;;22.60;99.90;;;;;;5024923;28;20187;-87
2022/08/22 08:15:19;;;;;;;24.77;4.45;;;22.50;99.90;;;;;;5056266;28;20182;-86
2022/08/22 08:17:48;;;;;;;23.25;4.70;;;22.50;99.90;;;;;;5056773;28;20174;-90
2022/08/22 08:20:18;;;;;;;11.13;4.07;;;22.40;99.90;;;;;;5066177;28;20182;-87
2022/08/22 08:22:46;;;;;;;24.13;4.22;;;22.30;99.90;;;;;;5076008;28;20269;-90
2022/08/22 08:25:17;;;;;;;10.57;4.45;;;22.10;99.90;;;;;;5077908;28;20194;-89
2022/08/22 08:30:35;;;;;;;10.45;3.60;;;22.20;99.90;;;;;;5073757;28;20217;-93
2022/08/22 08:33:05;;;;;;;23.65;5.38;;;22.10;99.90;;;;;;5077221;28;20187;-89
2022/08/22 08:35:37;;;;;;;16.58;3.90;;;22.00;99.90;;;;;;5075719;28;20213;-87
2022/08/22 08:38:16;;;;;;;20.25;4.20;;;22.00;99.90;;;;;;5075191;28;20167;-91
2022/08/22 08:41:09;;;;;;;18.63;4.45;;;22.10;99.90;;;;;;5075379;28;20223;-91
2022/08/22 08:43:44;;;;;;;12.55;3.88;;;22.50;99.90;;;;;;5074861;28;20174;-88
2022/08/22 08:46:28;;;;;;;21.92;3.95;;;22.70;99.90;;;;;;5075702;28;20618;-89
2022/08/22 08:49:28;;;;;;;22.20;3.90;;;22.70;99.90;;;;;;5074631;28;20701;-89
2022/08/22 08:52:06;;;;;;;13.88;4.63;;;22.90;99.90;;;;;;5075347;28;20740;-87
2022/08/22 08:54:57;;;;;;;19.83;4.03;;;22.80;99.90;;;;;;5077056;28;20177;-86
2022/08/22 08:57:41;;;;;;;21.77;4.10;;;22.90;99.90;;;;;;5075618;28;20236;-90
2022/08/22 09:00:20;;;;;;;19.35;3.13;;;22.90;99.90;;;;;;5074828;28;20634;-83
2022/08/22 09:03:27;;;;;;;22.80;3.85;;;23.00;99.90;;;;;;5076169;28;20836;-88
2022/08/22 09:06:06;;;;;;;12.20;3.28;;;22.90;99.90;;;;;;5072862;28;20162;-84
2022/08/22 09:08:57;;;;;;;7.00;2.90;;;23.10;99.90;;;;;;5077369;28;20245;-92
2022/08/22 09:11:59;;;;;;;23.63;4.38;;;23.40;99.90;;;;;;5078577;28;20695;-84
2022/08/22 09:14:49;;;;;;;34.15;4.15;;;23.40;99.90;;;;;;5073631;28;20186;-90
2022/08/22 09:17:37;;;;;;;13.35;2.95;;;23.40;99.90;;;;;;5073347;28;20602;-86
2022/08/22 09:20:23;;;;;;;19.38;4.20;;;23.70;99.90;;;;;;5075629;28;20167;-87
2022/08/22 09:22:48;;;;;;;26.40;3.28;;;23.70;99.90;;;;;;5073024;28;20209;-86
2022/08/22 09:25:24;;;;;;;17.85;2.97;;;23.60;99.90;;;;;;5074004;28;20178;-86
2022/08/22 09:28:03;;;;;;;22.83;2.72;;;23.60;99.90;;;;;;5074401;28;20181;-85
2022/08/22 09:30:56;;;;;;;8.90;3.00;;;23.70;99.90;;;;;;5074955;28;20263;-86
2022/08/22 09:33:27;;;;;;;60.88;4.40;;;24.00;99.90;;;;;;5075256;28;20162;-87
2022/08/22 09:36:05;;;;;;;21.45;3.25;;;24.20;99.90;;;;;;5075115;28;20171;-91
2022/08/22 09:38:30;;;;;;;8.25;2.60;;;24.30;99.90;;;;;;5076266;28;20192;-92
2022/08/22 09:41:30;;;;;;;7.45;2.53;;;24.30;99.90;;;;;;5078590;28;20258;-86
2022/08/22 09:44:14;;;;;;;10.75;2.22;;;24.60;99.90;;;;;;5075928;28;20267;-93
2022/08/22 09:47:02;;;;;;;9.23;2.63;;;25.10;99.90;;;;;;5080107;28;20166;-94
2022/08/22 09:49:42;;;;;;;12.48;2.42;;;25.40;99.90;;;;;;5079033;28;20185;-92
2022/08/22 09:52:23;;;;;;;5.03;2.13;;;25.40;99.90;;;;;;5078444;28;20241;-91
2022/08/22 09:54:57;;;;;;;2.78;1.42;;;25.10;99.90;;;;;;5080718;28;20173;-88
2022/08/22 09:58:02;;;;;;;13.85;2.45;;;24.80;99.90;;;;;;5078942;28;20170;-92
2022/08/22 10:00:46;;;;;;;5.80;2.17;;;24.60;99.90;;;;;;5075828;28;20731;-85
2022/08/22 10:03:36;;;;;;;6.45;2.10;;;24.70;99.90;;;;;;5074311;28;20221;-84
2022/08/22 10:06:10;;;;;;;12.07;2.00;;;24.90;99.90;;;;;;5074015;28;20473;-86
2022/08/22 10:09:04;;;;;;;10.40;1.92;;;25.20;99.90;;;;;;5075202;28;20182;-87
2022/08/22 10:11:40;;;;;;;3.83;1.88;;;25.20;99.90;;;;;;5075222;28;20205;-89
2022/08/22 10:14:45;;;;;;;5.60;2.08;;;25.30;99.90;;;;;;5075320;28;20166;-84
2022/08/22 10:17:20;;;;;;;2.85;1.65;;;25.20;99.90;;;;;;5077179;28;20163;-93
2022/08/22 10:20:02;;;;;;;5.57;1.85;;;25.30;99.90;;;;;;5081583;28;20214;-93
2022/08/22 10:22:46;;;;;;;3.83;1.70;;;25.50;99.90;;;;;;5081430;28;20178;-94
2022/08/22 10:25:30;;;;;;;8.73;1.85;;;25.80;99.90;;;;;;5077930;28;20174;-93
2022/08/22 10:28:15;;;;;;;5.85;1.42;;;25.50;99.90;;;;;;5078123;28;20216;-94
2022/08/22 10:30:44;;;;;;;7.85;1.90;;;25.70;99.90;;;;;;5079282;28;20232;-94
2022/08/22 10:33:14;;;;;;;17.00;1.80;;;25.60;99.90;;;;;;5075199;28;20178;-93
2022/08/22 10:36:06;;;;;;;15.13;1.88;;;25.60;99.90;;;;;;5078129;28;20181;-92
2022/08/22 10:38:41;;;;;;;8.45;1.50;;;25.70;99.90;;;;;;5078262;28;20288;-93
2022/08/22 10:41:34;;;;;;;7.80;2.13;;;25.70;99.90;;;;;;5080444;28;20222;-89
2022/08/22 10:44:14;;;;;;;9.27;2.10;;;25.80;99.90;;;;;;5087991;28;20169;-88
2022/08/22 10:46:58;;;;;;;12.48;1.90;;;25.60;99.90;;;;;;5094325;28;20188;-88
2022/08/22 10:49:51;;;;;;;7.78;1.45;;;25.60;99.90;;;;;;5095678;28;20181;-90
2022/08/22 10:52:29;;;;;;;3.80;1.48;;;25.80;99.90;;;;;;5082697;28;20214;-92
2022/08/22 10:55:06;;;;;;;10.48;1.92;;;26.10;99.90;;;;;;5076471;28;20170;-90
2022/08/22 10:57:35;;;;;;;6.45;1.65;;;26.00;99.90;;;;;;5077721;28;20179;-93
2022/08/22 11:00:11;;;;;;;67.18;3.33;;;26.20;99.90;;;;;;5074266;28;20173;-89
2022/08/22 11:02:43;;;;;;;15.95;1.90;;;26.50;99.90;;;;;;5076546;28;20194;-92
2022/08/22 11:05:17;;;;;;;6.55;1.48;;;26.50;99.90;;;;;;5077659;28;20174;-88
2022/08/22 11:08:05;;;;;;;7.88;1.52;;;26.70;99.90;;;;;;5079272;28;20189;-91
2022/08/22 11:10:52;;;;;;;6.57;1.20;;;26.80;99.90;;;;;;5081752;28;20301;-90
2022/08/22 11:14:05;;;;;;;7.18;1.80;;;27.00;99.90;;;;;;5095195;28;20534;-90
2022/08/22 11:16:56;;;;;;;4.15;1.30;;;27.20;99.90;;;;;;5093743;28;20266;-92
2022/08/22 11:19:30;;;;;;;9.88;2.28;;;27.20;99.90;;;;;;5093672;28;20231;-90
2022/08/22 11:22:20;;;;;;;8.13;1.77;;;27.10;99.90;;;;;;5091514;28;20181;-89
2022/08/22 11:25:13;;;;;;;4.18;1.23;;;27.20;99.90;;;;;;5091471;28;20264;-89
2022/08/22 11:28:14;;;;;;;10.07;1.50;;;27.30;99.90;;;;;;5094322;28;20193;-91
2022/08/22 11:30:58;;;;;;;9.18;1.65;;;27.50;99.90;;;;;;5095143;28;20177;-89
2022/08/22 11:33:44;;;;;;;10.38;2.00;;;27.40;99.90;;;;;;5097541;28;20232;-90
2022/08/22 11:36:32;;;;;;;6.35;1.73;;;27.20;99.90;;;;;;5093777;28;20181;-90
2022/08/22 11:39:09;;;;;;;10.07;2.22;;;27.20;99.90;;;;;;5087473;28;20182;-91
2022/08/22 11:41:47;;;;;;;8.93;1.67;;;27.60;99.90;;;;;;5091734;28;20213;-90
2022/08/22 11:44:24;;;;;;;12.38;1.35;;;27.80;99.90;;;;;;5095027;28;20177;-92
2022/08/22 11:46:54;;;;;;;5.05;1.80;;;27.70;99.90;;;;;;5095775;28;20172;-88
2022/08/22 11:49:41;;;;;;;6.50;1.33;;;27.80;99.90;;;;;;5093631;28;20671;-90
2022/08/22 11:52:17;;;;;;;3.72;1.35;;;28.00;99.90;;;;;;5095751;28;20201;-90
2022/08/22 11:54:59;;;;;;;12.65;1.75;;;28.40;99.50;;;;;;5095068;28;20174;-91
2022/08/22 11:57:44;;;;;;;6.47;1.35;;;28.10;99.40;;;;;;5095325;28;20166;-91
2022/08/22 12:00:57;;;;;;;3.35;1.20;;;28.20;99.40;;;;;;5094578;28;20170;-89
2022/08/22 12:03:35;;;;;;;7.30;1.73;;;28.10;99.60;;;;;;5088166;28;20185;-89
2022/08/22 12:06:45;;;;;;;6.07;1.33;;;27.90;99.80;;;;;;5091808;28;20244;-90
2022/08/22 12:09:20;;;;;;;6.75;1.75;;;28.20;99.80;;;;;;5093410;28;20173;-90
2022/08/22 12:12:14;;;;;;;5.65;1.23;;;28.40;98.90;;;;;;5092737;28;20217;-91
2022/08/22 12:14:51;;;;;;;3.75;1.45;;;28.50;98.20;;;;;;5091935;28;20686;-91
2022/08/22 12:17:54;;;;;;;5.47;1.45;;;28.50;97.60;;;;;;5092188;28;20169;-90
2022/08/22 12:20:22;;;;;;;7.50;2.17;;;28.40;98.10;;;;;;5091127;28;20172;-90
2022/08/22 12:23:19;;;;;;;9.80;1.58;;;28.50;98.00;;;;;;5090277;28;20189;-91
2022/08/22 12:26:13;;;;;;;11.02;1.33;;;28.60;98.20;;;;;;5078856;28;20182;-88
2022/08/22 12:29:03;;;;;;;8.75;1.80;;;28.40;98.10;;;;;;5078279;28;20523;-88
2022/08/22 12:31:54;;;;;;;4.97;1.58;;;28.30;97.70;;;;;;5078727;28;20285;-88
2022/08/22 12:34:53;;;;;;;5.35;1.33;;;28.50;98.30;;;;;;5077242;28;20231;-91
2022/08/22 12:37:37;;;;;;;5.03;1.40;;;28.30;97.60;;;;;;5076786;28;20190;-92
2022/08/22 12:40:08;;;;;;;7.38;1.52;;;28.30;97.90;;;;;;5078974;28;20171;-89
2022/08/22 12:42:56;;;;;;;3.35;1.42;;;28.20;98.30;;;;;;5078746;28;20198;-89
2022/08/22 12:45:55;;;;;;;3.38;1.30;;;28.30;97.20;;;;;;5080574;28;20177;-91
2022/08/22 12:48:51;;;;;;;3.20;1.30;;;28.30;96.80;;;;;;5081225;28;20635;-89
2022/08/22 12:51:34;;;;;;;3.72;1.30;;;28.30;97.10;;;;;;5065411;28;20191;-86
2022/08/22 12:54:25;;;;;;;8.05;1.50;;;28.20;97.30;;;;;;5078554;28;20185;-88
2022/08/22 12:57:23;;;;;;;28.98;2.88;;;28.10;97.90;;;;;;5080050;28;20159;-87
2022/08/22 12:59:53;;;;;;;8.48;1.48;;;27.90;98.40;;;;;;5073031;28;20187;-88
2022/08/22 13:02:26;;;;;;;15.32;1.85;;;27.70;98.60;;;;;;5061931;28;20183;-88
2022/08/22 13:04:58;;;;;;;33.75;3.33;;;27.70;98.60;;;;;;5063822;28;20191;-89
2022/08/22 13:07:33;;;;;;;110.07;7.05;;;27.50;98.50;;;;;;5062103;28;20171;-89
2022/08/22 13:10:36;;;;;;;4.78;1.65;;;27.70;98.60;;;;;;5060309;28;20171;-90
2022/08/22 13:13:04;;;;;;;9.35;1.77;;;27.70;98.00;;;;;;5047143;28;20220;-91
2022/08/22 13:15:34;;;;;;;8.45;1.73;;;27.80;97.90;;;;;;5063033;28;20596;-91
2022/08/22 13:18:03;;;;;;;7.28;1.27;;;27.70;98.00;;;;;;5060623;28;20148;-92
2022/08/22 13:20:33;;;;;;;28.52;1.70;;;27.60;98.20;;;;;;5059123;28;20632;-91
2022/08/22 13:23:05;;;;;;;4.20;1.77;;;27.60;98.40;;;;;;5058922;28;20244;-89
2022/08/22 13:26:11;;;;;;;8.20;1.30;;;27.80;98.20;;;;;;5060074;28;20751;-89
2022/08/22 13:28:56;;;;;;;6.03;1.60;;;27.80;97.60;;;;;;5065787;28;20180;-90
2022/08/22 13:31:28;;;;;;;8.32;1.38;;;27.90;97.90;;;;;;5037751;28;20496;-85
2022/08/22 13:34:35;;;;;;;4.30;1.45;;;28.10;97.60;;;;;;5053365;28;20182;-84
2022/08/22 13:37:03;;;;;;;6.57;1.55;;;28.30;97.20;;;;;;5052691;28;20257;-86
2022/08/22 13:39:35;;;;;;;13.45;1.40;;;28.30;97.50;;;;;;5053183;28;20175;-83
2022/08/22 13:42:04;;;;;;;3.80;1.20;;;28.10;97.80;;;;;;5054277;28;20289;-85
2022/08/22 13:44:48;;;;;;;22.98;2.13;;;28.00;97.40;;;;;;5053255;28;20542;-86
2022/08/22 13:47:17;;;;;;;7.93;1.30;;;28.40;97.30;;;;;;5057410;28;20234;-90
2022/08/22 13:50:06;;;;;;;2.75;1.08;;;28.40;96.80;;;;;;5061277;28;20174;-90
2022/08/22 13:52:36;;;;;;;4.25;1.95;;;28.50;96.70;;;;;;5062730;28;20289;-87
2022/08/22 13:55:12;;;;;;;4.00;1.40;;;28.50;96.50;;;;;;5068962;28;20175;-89
2022/08/22 13:57:45;;;;;;;7.93;1.70;;;28.50;96.50;;;;;;5067569;28;20178;-86
2022/08/22 14:00:48;;;;;;;5.75;1.50;;;28.30;96.70;;;;;;5066169;28;20175;-85
2022/08/22 14:03:23;;;;;;;2.60;1.38;;;28.40;96.70;;;;;;5055989;28;20178;-85
2022/08/22 14:05:57;;;;;;;3.53;1.40;;;28.60;96.40;;;;;;5053480;28;20163;-85
2022/08/22 14:08:34;;;;;;;2.83;1.38;;;28.50;96.60;;;;;;5054477;28;20178;-84